Portada
METAR-TAF:

METAR-TAF

Aeroports :

Savannakhet, Laos

latitud: 16-33-24N, longitud: 104-45-34E, altitud: 155 m

Observació

L'informe es va fer fa 48 minuts, a les 12:00 UTC
Vent 2 kt del Nord
Temperatura 30°C
Humitat 40%
Pressió 1014 hPa
Visibilitat: 3000 m
Escasses núvols a una alçada de 2000 ft
boirina

METAR: VLSK 261200Z 36002KT 3000 BR FEW020 30/15 Q1014 NOSIG

Hora: 19:48 (12:48 UTC)

Pronòstic

L'informe es va fer fa 1 hora i 48 minuts, a les 11:00 UTC
Pronòstic vàlid del 26 a les 12 UTC al 27 a les 12 UTC
Vent 4 kt del Est/Nord-Est
Visibilitat: 4000 m
Escasses núvols a una alçada de 2000 ft
Núvols disperses a una alçada de 10000 ft
boirina

TAF: VLSK 261100Z 2612/2712 06004KT 4000 BR FEW020 SCT100

Observacions i pronòstics meteorològics de més de 4000 aeroports (METAR i TAF).

Les estacions disponibles són els punts grocs i vermells al mapa.

Posi el ratolí al punt desitjat per veure el nom de l'estació.

Feu clic per veure les observacions i els pronòstics meteorològics.

Per canviar el mapa: feu clic els botons verds amb una creu de color negre per apropar; al botó verd amb un guió per allunyar la imatge; o en les fletxes verdes per a mapes adjacents.


METAR-TAF: